createdAt,value
2018-12-06T00:00:35.078Z,13.40
2018-12-06T00:10:50.805Z,11.53
2018-12-06T00:21:06.178Z,12.50
2018-12-06T00:31:21.452Z,12.23
2018-12-06T00:52:10.326Z,11.70
2018-12-06T01:02:25.065Z,10.77
2018-12-06T01:12:40.306Z,10.47
2018-12-06T01:22:55.870Z,11.10
2018-12-06T01:33:11.503Z,10.93
2018-12-06T01:43:32.348Z,10.90
2018-12-06T01:53:47.322Z,11.83
2018-12-06T02:04:02.091Z,14.30
2018-12-06T02:14:17.446Z,13.67
2018-12-06T02:24:32.923Z,14.33
2018-12-06T02:34:47.924Z,15.17
2018-12-06T02:45:03.693Z,16.17
2018-12-06T02:55:19.130Z,17.20
2018-12-06T03:05:33.987Z,18.47
2018-12-06T03:15:48.708Z,18.20
2018-12-06T03:26:03.854Z,18.87
2018-12-06T03:36:19.378Z,18.23
2018-12-06T03:46:35.064Z,16.80
2018-12-06T03:56:50.829Z,16.53
2018-12-06T04:07:06.689Z,14.97
2018-12-06T04:17:22.028Z,13.73
2018-12-06T04:27:37.865Z,11.20
2018-12-06T04:37:53.257Z,11.03
2018-12-06T04:48:09.080Z,10.23
2018-12-06T04:58:24.286Z,12.00
2018-12-06T05:08:40.137Z,12.33
2018-12-06T05:18:55.001Z,13.33
2018-12-06T05:29:09.915Z,14.93
2018-12-06T05:39:25.233Z,15.47
2018-12-06T05:49:40.004Z,15.63
2018-12-06T05:59:55.671Z,17.70
2018-12-06T06:10:10.813Z,17.87
2018-12-06T06:20:28.311Z,19.43
2018-12-06T06:30:44.066Z,19.30
2018-12-06T06:40:58.954Z,21.27
2018-12-06T06:51:13.728Z,20.55
2018-12-06T07:01:28.584Z,24.50
2018-12-06T07:11:44.386Z,26.10
2018-12-06T07:21:59.993Z,28.17
2018-12-06T07:32:15.625Z,29.60
2018-12-06T07:42:31.159Z,28.00
2018-12-06T07:52:46.816Z,29.95
2018-12-06T08:03:01.741Z,31.93
2018-12-06T08:13:17.659Z,33.23
2018-12-06T08:23:32.973Z,36.30
2018-12-06T08:33:47.764Z,31.60
2018-12-06T08:44:03.501Z,30.87
2018-12-06T08:54:18.221Z,32.30
2018-12-06T09:04:33.769Z,31.73
2018-12-06T09:14:49.434Z,29.93
2018-12-06T09:25:04.208Z,30.07
2018-12-06T09:35:19.735Z,29.63
2018-12-06T09:45:35.300Z,27.03
2018-12-06T09:55:50.004Z,24.53
2018-12-06T10:06:05.293Z,21.60
2018-12-06T10:16:20.326Z,20.05
2018-12-06T10:26:35.961Z,18.47
2018-12-06T10:36:51.535Z,17.77
2018-12-06T10:47:06.313Z,17.53
2018-12-06T10:57:22.111Z,16.50
2018-12-06T11:07:37.000Z,15.63
2018-12-06T11:17:51.944Z,15.20
2018-12-06T11:28:06.792Z,14.83
2018-12-06T11:38:21.714Z,10.60
2018-12-06T11:48:36.362Z,9.80
2018-12-06T11:58:51.208Z,9.17
2018-12-06T12:09:07.841Z,7.90
2018-12-06T12:19:23.350Z,9.83
2018-12-06T12:29:38.908Z,11.43
2018-12-06T12:39:54.427Z,12.60
2018-12-06T12:50:09.271Z,12.28
2018-12-06T13:00:24.495Z,12.07
2018-12-06T13:10:41.078Z,11.40
2018-12-06T13:20:56.760Z,10.53
2018-12-06T13:31:12.438Z,9.98
2018-12-06T13:41:27.679Z,9.63
2018-12-06T13:51:43.228Z,9.60
2018-12-06T14:01:58.573Z,9.37
2018-12-06T14:12:13.565Z,9.27
2018-12-06T14:22:29.426Z,7.93
2018-12-06T14:32:45.160Z,7.97
2018-12-06T14:43:00.069Z,7.63
2018-12-06T14:53:15.574Z,6.53
2018-12-06T15:03:31.302Z,5.97
2018-12-06T15:13:46.246Z,7.43
2018-12-06T15:24:01.715Z,6.90
2018-12-06T15:34:17.602Z,8.10
2018-12-06T15:44:34.607Z,8.27
2018-12-06T15:54:49.622Z,8.60
2018-12-06T16:05:05.349Z,8.90
2018-12-06T16:15:20.363Z,9.17
2018-12-06T16:25:36.195Z,10.00
2018-12-06T16:35:51.695Z,10.07
2018-12-06T16:46:07.341Z,9.50
2018-12-06T16:56:23.045Z,8.80
2018-12-06T17:06:38.055Z,8.83
2018-12-06T17:16:52.865Z,9.50
2018-12-06T17:27:08.253Z,8.10
2018-12-06T17:37:23.843Z,6.93
2018-12-06T17:47:39.838Z,6.30
2018-12-06T17:57:55.338Z,6.10
2018-12-06T18:08:11.102Z,6.60
2018-12-06T18:18:26.634Z,7.93
2018-12-06T18:28:42.181Z,8.53
2018-12-06T18:38:57.505Z,8.83
2018-12-06T18:49:13.447Z,9.37
2018-12-06T18:59:29.148Z,10.43
2018-12-06T19:09:44.935Z,11.27
2018-12-06T19:20:00.539Z,11.73
2018-12-06T19:30:16.707Z,10.33
2018-12-06T19:40:32.534Z,10.77
2018-12-06T19:50:48.637Z,10.90
2018-12-06T20:01:04.037Z,12.03
2018-12-06T20:11:19.972Z,12.57
2018-12-06T20:21:35.149Z,13.47
2018-12-06T20:31:50.758Z,12.60
2018-12-06T20:42:05.741Z,12.70
2018-12-06T20:52:20.638Z,12.03
2018-12-06T21:02:35.876Z,11.47
2018-12-06T21:12:51.472Z,12.47
2018-12-06T21:23:07.158Z,12.77
2018-12-06T21:33:22.214Z,11.13
2018-12-06T21:43:37.877Z,10.23
2018-12-06T21:53:53.393Z,8.77
2018-12-06T22:04:08.823Z,7.83
2018-12-06T22:14:23.781Z,5.30
2018-12-06T22:24:46.943Z,5.53
2018-12-06T22:35:02.577Z,6.40
2018-12-06T22:45:52.896Z,7.23
2018-12-06T22:56:08.690Z,7.65
2018-12-06T23:06:25.309Z,6.87
2018-12-06T23:16:40.208Z,6.00
2018-12-06T23:26:55.127Z,4.83
2018-12-06T23:37:10.739Z,4.60
2018-12-06T23:47:26.198Z,3.50
2018-12-06T23:57:42.077Z,3.50
